Fort Myers, FL (33965)

12:52 PM EDT on August 30, 2014 (GMT -0400)
Orangewood | Change Station
CLOSE
Current Station
Personal Weather Station
Location: Fort Myers, FL
Elevation: 20 ft
Nearby Weather Stations

Elev 20 ft 26.60 °N, 81.88 °W | Updated 45 minutes ago

Clear
Clear
90.7 °F
Feels Like 102 °F
N
8.0
Wind Variable Wind from East
Gusts 13.0 mph

Today
High -- | Low -- °F
--% Chance of Precip.
Yesterday
High -- | Low -- °F
Precip. -- in
7:06 AM 7:49 PM
Waxing Crescent, 23% visible
Pressure 30.11 in
Visibility 10.0 miles
Clouds Clear
Heat Index 102 °F
Dew Point 75 °F
Humidity 61%
Rainfall -9999.00 in
Snow Depth Not available.
UV 12 out of 12
Pollen 4.30 out of 12
Air Quality Not available.
Flu Activity Not available.
METAR KFMY 301553Z 11010KT 10SM CLR 32/23 A3010 RMK AO2 SLP195 T03170233

More Conditions Fewer Conditions

Pressure 30.11 in
Visibility 10.0 miles
Clouds Clear
Heat Index 102 °F
Dew Point 75 °F
Humidity 61%
Rainfall -9999.00 in
Snow Depth Not available.
UV 12 out of 12
Pollen 4.30 out of 12
Air Quality Not available.
Flu Activity Not available.
METAR KFMY 301553Z 11010KT 10SM CLR 32/23 A3010 RMK AO2 SLP195 T03170233

More Conditions Fewer Conditions

10-Day Weather Forecast

Almanac

Astronomy

Aug. 30, 2014 Rise Set
Actual Time 7:06 AM EDT 7:49 PM EDT
Civil Twilight 6:42 AM EDT 8:13 PM EDT
Nautical Twilight 6:14 AM EDT 8:40 PM EDT
Astronomical Twilight 5:46 AM EDT 9:08 PM EDT
Moon 11:22 AM EDT 10:54 PM EDT
Length of Visible Light 13h 30m
Length of Day
12h 43m
Tomorrow will be 1m 31s shorter.
Waxing Crescent, 23% of the Moon is Illuminated
Today
Waxing Crescent
Sep 2
First Quarter
Sep 8
Full
Sep 15
Last Quarter
Sep 24
New

Today's Extremes

State Highs State Lows

Community

WunderPhotos

Upload Photos

1,748,562 photos uploaded!

WunderBlogs® & News

Nearby

Snow Depth

Station Depth Elevation
No new snow has been reported.

Earthquake Activity

City Distance Mag. Time & Date
No recent earthquake activity has been reported nearby.
Minimum magnitude displayed is 2.5.

Coastal Water Temperatures

Place Temperature
Fort Myers, FL 87.1 °F

Nearby Weather Stations